Norse Mersey — IBEN — position and weather

sailwx.info

Track history (hours):
 
Tides and Currents Weather Stations Pressure Air Temp Water Temp Dewpoint Dewpoint Depression Visibility Wind Speed Wind Dir Waves Ship Positions

Norse Mersey

Operator: Norse Merchant Ferries

Last reported at 2018-Sep-18 00:32 UTC. Time now 2018-Sep-19 03:12 UTC.
Position N 40°25' E 014°02'.

Length 175 m; draft 5.1 m.

Type: Ship (hazmat cat A). MMSI: 247026000.

Date/timePositionNaut miles runAvg speedWind from/ knotsBaromVisibWave heightAir tempDewpointWater temp
2018-Sep-18 00:32N 40°25' E 014°02'116.3
2018-Sep-18 00:30N 40°25' E 014°02'816.1
2018-Sep-18 00:01N 40°28' E 014°12'116.1
2018-Sep-17 23:59N 40°28' E 014°13'816.2
2018-Sep-17 23:30N 40°31' E 014°22'716.1
2018-Sep-17 23:03N 40°34' E 014°31'116.1
2018-Sep-17 23:00N 40°34' E 014°32'6 0.6
2018-Sep-17 11:32N 40°36' E 014°40'011.5
2018-Sep-17 11:30N 40°36' E 014°39'714.3
2018-Sep-17 11:02N 40°32' E 014°32'015.5
2018-Sep-17 11:00N 40°32' E 014°32'815.6
2018-Sep-17 10:30N 40°28' E 014°23'715.5
2018-Sep-17 10:03N 40°24' E 014°15'115.5
2018-Sep-17 10:00N 40°24' E 014°14'9 0.2
2018-Sep-15 17:43N 40°25' E 014°03'416.2
2018-Sep-15 17:30N 40°26' E 014°07'715.9
2018-Sep-15 17:03N 40°29' E 014°16'115.8
2018-Sep-15 17:00N 40°29' E 014°17'815.9
2018-Sep-15 16:30N 40°32' E 014°27'715.7
2018-Sep-15 16:02N 40°35' E 014°36'015.9
2018-Sep-15 16:00N 40°35' E 014°36'3 0.2
2018-Sep-14 22:55N 40°37' E 014°40'716.3
2018-Sep-14 22:29N 40°33' E 014°33'716.2
2018-Sep-14 22:03N 40°29' E 014°25'116.0
2018-Sep-14 22:00N 40°28' E 014°24'816.0
2018-Sep-14 21:30N 40°24' E 014°15'39 1.0
2018-Sep-13 08:30N 40°13' E 013°27'716.2
2018-Sep-13 08:03N 40°16' E 013°36'116.3
2018-Sep-13 08:01N 40°16' E 013°36'816.3
2018-Sep-13 07:30N 40°19' E 013°46'816.3
2018-Sep-13 07:02N 40°22' E 013°56'016.3
2018-Sep-13 07:00N 40°22' E 013°56'815.9
2018-Sep-13 06:30N 40°26' E 014°05'816.4
2018-Sep-13 06:02N 40°29' E 014°15'016.2
2018-Sep-13 06:00N 40°29' E 014°15'816.4
2018-Sep-13 05:30N 40°32' E 014°25'716.1
2018-Sep-13 05:03N 40°35' E 014°34'115.9
2018-Sep-13 04:59N 40°35' E 014°36'5 0.5
2018-Sep-12 18:11N 40°31' E 014°31'514.4
2018-Sep-12 17:50N 40°29' E 014°25'514.1
2018-Sep-12 17:30N 40°26' E 014°20'614.1
2018-Sep-12 17:03N 40°23' E 014°13'114.0
2018-Sep-12 17:00N 40°22' E 014°12'714.0
2018-Sep-12 16:29N 40°19' E 014°04'614.1
2018-Sep-12 16:03N 40°16' E 013°57'114.1
2018-Sep-12 16:00N 40°15' E 013°56'814.0
2018-Sep-12 15:25N 40°11' E 013°47'513.8
2018-Sep-12 15:03N 40°08' E 013°42'113.7
2018-Sep-12 15:01N 40°08' E 013°41'713.6
2018-Sep-12 14:28N 40°04' E 013°33'30 0.8
2018-Sep-11 00:36N 40°24' E 014°01'116.4
2018-Sep-11 00:30N 40°25' E 014°03'816.4
2018-Sep-11 00:03N 40°28' E 014°12'116.5
2018-Sep-11 00:00N 40°28' E 014°13'816.3
2018-Sep-10 23:31N 40°31' E 014°23'716.2
2018-Sep-10 23:03N 40°34' E 014°32'116.3
2018-Sep-10 23:00N 40°34' E 014°33'7 0.6
2018-Sep-10 12:02N 40°37' E 014°41'1 8.4
2018-Sep-10 11:59N 40°36' E 014°41'3 6.0
2018-Sep-10 11:29N 40°35' E 014°38'3 6.2
2018-Sep-10 11:03N 40°33' E 014°35'111.5
2018-Sep-10 11:00N 40°33' E 014°34'713.3
2018-Sep-10 10:30N 40°31' E 014°26'613.1
2018-Sep-10 10:01N 40°29' E 014°17'014.7
2018-Sep-10 10:00N 40°29' E 014°17'814.5
2018-Sep-10 09:28N 40°26' E 014°08'5 0.1
2018-Sep-08 15:07N 40°25' E 014°02'213.5
2018-Sep-08 15:00N 40°25' E 014°04'1313.7
2018-Sep-08 14:02N 40°30' E 014°21'013.6
2018-Sep-08 13:59N 40°30' E 014°21'713.5
2018-Sep-08 13:30N 40°32' E 014°29'613.3
2018-Sep-08 13:03N 40°35' E 014°37'113.5
2018-Sep-08 12:59N 40°35' E 014°38'  
Track history (hours):
 
Tides and Currents Weather Stations Pressure Air Temp Water Temp Dewpoint Dewpoint Depression Visibility Wind Speed Wind Dir Waves Ship Positions

Norse Mersey

Operator: Norse Merchant Ferries

Last reported at 2018-Sep-18 00:32 UTC. Time now 2018-Sep-19 03:12 UTC.
Position N 40°25' E 014°02'.

Length 175 m; draft 5.1 m.

Type: Ship (hazmat cat A). MMSI: 247026000.

Date/timePositionNaut miles runAvg speedWind from/ knotsBaromVisibWave heightAir tempDewpointWater temp
2018-Sep-18 00:32N 40°25' E 014°02'116.3
2018-Sep-18 00:30N 40°25' E 014°02'816.1
2018-Sep-18 00:01N 40°28' E 014°12'116.1
2018-Sep-17 23:59N 40°28' E 014°13'816.2
2018-Sep-17 23:30N 40°31' E 014°22'716.1
2018-Sep-17 23:03N 40°34' E 014°31'116.1
2018-Sep-17 23:00N 40°34' E 014°32'6 0.6
2018-Sep-17 11:32N 40°36' E 014°40'011.5
2018-Sep-17 11:30N 40°36' E 014°39'714.3
2018-Sep-17 11:02N 40°32' E 014°32'015.5
2018-Sep-17 11:00N 40°32' E 014°32'815.6
2018-Sep-17 10:30N 40°28' E 014°23'715.5
2018-Sep-17 10:03N 40°24' E 014°15'115.5
2018-Sep-17 10:00N 40°24' E 014°14'9 0.2
2018-Sep-15 17:43N 40°25' E 014°03'416.2
2018-Sep-15 17:30N 40°26' E 014°07'715.9
2018-Sep-15 17:03N 40°29' E 014°16'115.8
2018-Sep-15 17:00N 40°29' E 014°17'815.9
2018-Sep-15 16:30N 40°32' E 014°27'715.7
2018-Sep-15 16:02N 40°35' E 014°36'015.9
2018-Sep-15 16:00N 40°35' E 014°36'3 0.2
2018-Sep-14 22:55N 40°37' E 014°40'716.3
2018-Sep-14 22:29N 40°33' E 014°33'716.2
2018-Sep-14 22:03N 40°29' E 014°25'116.0
2018-Sep-14 22:00N 40°28' E 014°24'816.0
2018-Sep-14 21:30N 40°24' E 014°15'39 1.0
2018-Sep-13 08:30N 40°13' E 013°27'716.2
2018-Sep-13 08:03N 40°16' E 013°36'116.3
2018-Sep-13 08:01N 40°16' E 013°36'816.3
2018-Sep-13 07:30N 40°19' E 013°46'816.3
2018-Sep-13 07:02N 40°22' E 013°56'016.3
2018-Sep-13 07:00N 40°22' E 013°56'815.9
2018-Sep-13 06:30N 40°26' E 014°05'816.4
2018-Sep-13 06:02N 40°29' E 014°15'016.2
2018-Sep-13 06:00N 40°29' E 014°15'816.4
2018-Sep-13 05:30N 40°32' E 014°25'716.1
2018-Sep-13 05:03N 40°35' E 014°34'115.9
2018-Sep-13 04:59N 40°35' E 014°36'5 0.5
2018-Sep-12 18:11N 40°31' E 014°31'514.4
2018-Sep-12 17:50N 40°29' E 014°25'514.1
2018-Sep-12 17:30N 40°26' E 014°20'614.1
2018-Sep-12 17:03N 40°23' E 014°13'114.0
2018-Sep-12 17:00N 40°22' E 014°12'714.0
2018-Sep-12 16:29N 40°19' E 014°04'614.1
2018-Sep-12 16:03N 40°16' E 013°57'114.1
2018-Sep-12 16:00N 40°15' E 013°56'814.0
2018-Sep-12 15:25N 40°11' E 013°47'513.8
2018-Sep-12 15:03N 40°08' E 013°42'113.7
2018-Sep-12 15:01N 40°08' E 013°41'713.6
2018-Sep-12 14:28N 40°04' E 013°33'30 0.8
2018-Sep-11 00:36N 40°24' E 014°01'116.4
2018-Sep-11 00:30N 40°25' E 014°03'816.4
2018-Sep-11 00:03N 40°28' E 014°12'116.5
2018-Sep-11 00:00N 40°28' E 014°13'816.3
2018-Sep-10 23:31N 40°31' E 014°23'716.2
2018-Sep-10 23:03N 40°34' E 014°32'116.3
2018-Sep-10 23:00N 40°34' E 014°33'7 0.6
2018-Sep-10 12:02N 40°37' E 014°41'1 8.4
2018-Sep-10 11:59N 40°36' E 014°41'3 6.0
2018-Sep-10 11:29N 40°35' E 014°38'3 6.2
2018-Sep-10 11:03N 40°33' E 014°35'111.5
2018-Sep-10 11:00N 40°33' E 014°34'713.3
2018-Sep-10 10:30N 40°31' E 014°26'613.1
2018-Sep-10 10:01N 40°29' E 014°17'014.7
2018-Sep-10 10:00N 40°29' E 014°17'814.5
2018-Sep-10 09:28N 40°26' E 014°08'5 0.1
2018-Sep-08 15:07N 40°25' E 014°02'213.5
2018-Sep-08 15:00N 40°25' E 014°04'1313.7
2018-Sep-08 14:02N 40°30' E 014°21'013.6
2018-Sep-08 13:59N 40°30' E 014°21'713.5
2018-Sep-08 13:30N 40°32' E 014°29'613.3
2018-Sep-08 13:03N 40°35' E 014°37'113.5
2018-Sep-08 12:59N 40°35' E 014°38'  

Dump ship's entire track history